createdAt,value
2018-06-16T00:01:51.517Z,9.97
2018-06-16T00:04:29.522Z,10.20
2018-06-16T00:06:59.561Z,10.57
2018-06-16T00:09:29.198Z,11.10
2018-06-16T00:11:57.213Z,10.90
2018-06-16T00:14:25.275Z,10.97
2018-06-16T00:16:53.331Z,12.07
2018-06-16T00:19:29.070Z,11.90
2018-06-16T00:21:57.136Z,12.17
2018-06-16T00:24:25.249Z,12.37
2018-06-16T00:26:53.277Z,13.00
2018-06-16T00:29:28.658Z,12.43
2018-06-16T00:31:59.862Z,12.33
2018-06-16T00:34:27.913Z,11.23
2018-06-16T00:36:55.946Z,12.07
2018-06-16T00:39:30.042Z,11.33
2018-06-16T00:41:59.426Z,12.80
2018-06-16T00:44:29.129Z,11.03
2018-06-16T00:46:57.230Z,12.43
2018-06-16T00:49:31.189Z,12.17
2018-06-16T00:52:08.834Z,11.10
2018-06-16T00:54:36.901Z,12.13
2018-06-16T00:57:16.222Z,11.23
2018-06-16T00:59:50.307Z,11.47
2018-06-16T01:02:19.621Z,12.33
2018-06-16T01:04:47.752Z,12.03
2018-06-16T01:07:15.842Z,12.30
2018-06-16T01:09:43.861Z,12.27
2018-06-16T01:12:19.246Z,11.53
2018-06-16T01:14:47.565Z,13.27
2018-06-16T01:17:19.088Z,12.17
2018-06-16T01:19:47.158Z,12.30
2018-06-16T01:22:20.732Z,12.20
2018-06-16T01:24:48.819Z,12.07
2018-06-16T01:27:17.205Z,11.93
2018-06-16T01:29:49.166Z,12.07
2018-06-16T01:32:21.132Z,12.33
2018-06-16T01:34:59.094Z,11.60
2018-06-16T01:37:27.151Z,12.27
2018-06-16T01:39:55.215Z,12.03
2018-06-16T01:42:28.967Z,12.47
2018-06-16T01:44:57.027Z,11.73
2018-06-16T01:47:25.118Z,12.40
2018-06-16T01:49:53.172Z,13.17
2018-06-16T01:52:28.837Z,12.40
2018-06-16T01:55:00.730Z,11.53
2018-06-16T01:57:28.813Z,13.20
2018-06-16T02:00:00.226Z,12.97
2018-06-16T02:02:29.946Z,12.63
2018-06-16T02:04:58.490Z,13.37
2018-06-16T02:07:26.571Z,13.83
2018-06-16T02:09:54.702Z,13.20
2018-06-16T02:12:29.378Z,13.93
2018-06-16T02:14:57.438Z,13.20
2018-06-16T02:17:25.486Z,13.00
2018-06-16T02:19:53.550Z,13.63
2018-06-16T02:22:21.650Z,13.90
2018-06-16T02:24:49.717Z,13.47
2018-06-16T02:27:17.854Z,13.73
2018-06-16T02:29:51.439Z,13.60
2018-06-16T02:32:29.051Z,13.97
2018-06-16T02:34:57.103Z,14.13
2018-06-16T02:37:29.138Z,14.90
2018-06-16T02:39:57.203Z,15.13
2018-06-16T02:42:25.323Z,15.93
2018-06-16T02:44:53.378Z,17.63
2018-06-16T02:47:28.572Z,14.53
2018-06-16T02:49:56.846Z,14.47
2018-06-16T02:52:24.919Z,14.27
2018-06-16T02:54:52.986Z,14.50
2018-06-16T02:57:21.081Z,13.97
2018-06-16T02:59:49.125Z,13.77
2018-06-16T03:02:20.603Z,14.40
2018-06-16T03:04:49.606Z,15.17
2018-06-16T03:07:17.689Z,12.17
2018-06-16T03:09:51.790Z,17.10
2018-06-16T03:12:19.892Z,16.47
2018-06-16T03:14:48.013Z,16.93
2018-06-16T03:17:16.053Z,17.17
2018-06-16T03:19:44.113Z,16.97
2018-06-16T03:22:18.910Z,16.73
2018-06-16T03:24:50.127Z,15.70
2018-06-16T03:27:18.210Z,14.50
2018-06-16T03:29:46.394Z,14.70
2018-06-16T03:32:14.482Z,13.93
2018-06-16T03:34:42.574Z,14.17
2018-06-16T03:37:10.688Z,14.53
2018-06-16T03:39:39.608Z,14.13
2018-06-16T03:45:00.915Z,12.90
2018-06-16T03:47:29.476Z,14.80
2018-06-16T03:49:57.643Z,12.47
2018-06-16T03:52:25.772Z,14.40
2018-06-16T03:54:53.999Z,14.47
2018-06-16T03:57:28.873Z,14.83
2018-06-16T03:59:56.975Z,13.20
2018-06-16T04:02:25.051Z,13.77
2018-06-16T04:04:53.463Z,14.03
2018-06-16T04:07:29.175Z,11.73
2018-06-16T04:09:57.343Z,14.03
2018-06-16T04:12:31.535Z,12.20
2018-06-16T04:14:59.670Z,13.33
2018-06-16T04:17:27.799Z,13.20
2018-06-16T04:19:55.910Z,13.27
2018-06-16T04:22:24.068Z,10.40
2018-06-16T04:24:58.995Z,11.60
2018-06-16T04:27:30.199Z,11.27
2018-06-16T04:29:58.293Z,13.03
2018-06-16T04:32:26.427Z,11.60
2018-06-16T04:35:00.139Z,10.57
2018-06-16T04:37:28.226Z,11.50
2018-06-16T04:39:56.363Z,9.43
2018-06-16T04:42:24.495Z,13.67
2018-06-16T04:44:52.666Z,11.13
2018-06-16T04:47:20.800Z,12.40
2018-06-16T04:49:49.740Z,12.43
2018-06-16T04:52:18.673Z,10.90
2018-06-16T04:54:46.851Z,10.40
2018-06-16T04:57:21.278Z,12.60
2018-06-16T04:59:59.809Z,12.27
2018-06-16T05:02:29.880Z,11.53
2018-06-16T05:04:58.057Z,13.03
2018-06-16T05:07:26.267Z,12.83
2018-06-16T05:10:00.566Z,13.90
2018-06-16T05:12:29.776Z,13.83
2018-06-16T05:14:57.969Z,13.73
2018-06-16T05:17:29.215Z,14.33
2018-06-16T05:20:00.954Z,15.40
2018-06-16T05:22:29.764Z,15.87
2018-06-16T05:24:58.369Z,16.43
2018-06-16T05:27:27.133Z,16.57
2018-06-16T05:29:55.269Z,15.40
2018-06-16T05:32:23.506Z,16.30
2018-06-16T05:34:58.802Z,16.47
2018-06-16T05:37:27.015Z,16.50
2018-06-16T05:40:01.524Z,15.30
2018-06-16T05:42:39.881Z,13.33
2018-06-16T05:45:11.186Z,16.27
2018-06-16T05:47:39.478Z,13.93
2018-06-16T05:50:08.705Z,15.87
2018-06-16T05:52:36.854Z,13.27
2018-06-16T05:55:05.013Z,14.53
2018-06-16T05:57:33.131Z,15.32
2018-06-16T06:00:01.340Z,12.00
2018-06-16T06:02:29.571Z,16.23
2018-06-16T06:05:00.756Z,16.10
2018-06-16T06:07:29.012Z,16.07
2018-06-16T06:10:04.573Z,16.17
2018-06-16T06:12:33.090Z,15.57
2018-06-16T06:15:01.237Z,16.83
2018-06-16T06:17:31.071Z,17.30
2018-06-16T06:19:59.170Z,17.03
2018-06-16T06:22:27.304Z,16.87
2018-06-16T06:24:55.412Z,12.85
2018-06-16T06:27:29.946Z,15.40
2018-06-16T06:29:58.083Z,16.67
2018-06-16T06:32:29.664Z,15.93
2018-06-16T06:34:59.387Z,14.75
2018-06-16T06:37:29.227Z,13.68
2018-06-16T06:40:00.944Z,18.15
2018-06-16T06:42:29.102Z,17.02
2018-06-16T06:45:00.504Z,14.10
2018-06-16T06:47:28.631Z,17.90
2018-06-16T06:50:00.706Z,16.75
2018-06-16T06:52:29.416Z,13.95
2018-06-16T06:54:57.502Z,17.10
2018-06-16T06:57:31.390Z,16.65
2018-06-16T07:00:09.868Z,16.42
2018-06-16T07:02:39.231Z,15.72
2018-06-16T07:05:10.707Z,17.67
2018-06-16T07:07:39.426Z,12.55
2018-06-16T07:10:07.555Z,15.03
2018-06-16T07:12:41.370Z,15.83
2018-06-16T07:15:09.593Z,16.00
2018-06-16T07:17:37.980Z,15.70
2018-06-16T07:20:06.056Z,14.35
2018-06-16T07:22:44.191Z,11.20
2018-06-16T07:25:19.616Z,13.48
2018-06-16T07:27:47.931Z,9.30
2018-06-16T07:30:16.158Z,15.13
2018-06-16T07:32:44.330Z,12.80
2018-06-16T07:35:12.867Z,13.35
2018-06-16T07:37:41.016Z,9.30
2018-06-16T07:40:09.282Z,11.85
2018-06-16T07:42:37.469Z,9.80
2018-06-16T07:45:06.137Z,10.90
2018-06-16T07:47:40.487Z,7.87
2018-06-16T07:50:10.298Z,11.03
2018-06-16T07:52:40.453Z,8.15
2018-06-16T07:55:08.747Z,7.50
2018-06-16T07:57:36.931Z,7.80
2018-06-16T08:00:10.818Z,7.00
2018-06-16T08:02:39.703Z,9.40
2018-06-16T08:05:11.069Z,6.40
2018-06-16T08:07:39.386Z,8.00
2018-06-16T08:10:07.553Z,6.58
2018-06-16T08:12:35.796Z,8.60
2018-06-16T08:15:03.979Z,9.65
2018-06-16T08:17:32.112Z,6.37
2018-06-16T08:20:00.262Z,8.20
2018-06-16T08:22:29.622Z,6.72
2018-06-16T08:24:57.746Z,8.45
2018-06-16T08:27:29.733Z,6.28
2018-06-16T08:29:59.265Z,8.45
2018-06-16T08:32:30.730Z,7.08
2018-06-16T08:34:59.097Z,9.10
2018-06-16T08:37:27.380Z,9.30
2018-06-16T08:39:55.611Z,6.65
2018-06-16T08:42:24.088Z,9.15
2018-06-16T08:44:58.754Z,6.53
2018-06-16T08:47:27.104Z,7.97
2018-06-16T08:49:55.398Z,5.80
2018-06-16T08:52:23.663Z,8.00
2018-06-16T08:54:52.034Z,6.42
2018-06-16T08:57:20.309Z,8.23
2018-06-16T08:59:48.485Z,6.97
2018-06-16T09:02:16.606Z,8.28
2018-06-16T09:04:44.982Z,6.60
2018-06-16T09:07:13.122Z,7.58
2018-06-16T09:09:49.506Z,5.33
2018-06-16T09:12:17.683Z,6.67
2018-06-16T09:14:46.298Z,5.12
2018-06-16T09:17:20.544Z,7.75
2018-06-16T09:19:48.732Z,5.87
2018-06-16T09:22:20.303Z,5.05
2018-06-16T09:24:48.529Z,7.10
2018-06-16T09:27:21.050Z,5.50
2018-06-16T09:29:49.199Z,6.87
2018-06-16T09:32:21.209Z,5.50
2018-06-16T09:34:49.342Z,6.75
2018-06-16T09:37:21.216Z,5.08
2018-06-16T09:39:49.410Z,6.95
2018-06-16T09:42:19.397Z,7.58
2018-06-16T09:44:51.305Z,8.35
2018-06-16T09:47:29.602Z,6.20
2018-06-16T09:49:57.845Z,7.25
2018-06-16T09:52:26.024Z,6.00
2018-06-16T09:55:00.307Z,7.00
2018-06-16T09:57:29.502Z,7.75
2018-06-16T10:00:01.359Z,6.00
2018-06-16T10:02:39.460Z,4.78
2018-06-16T10:05:07.615Z,6.55
2018-06-16T10:07:39.657Z,4.80
2018-06-16T10:10:07.891Z,6.40
2018-06-16T10:12:36.135Z,5.15
2018-06-16T10:15:10.328Z,5.75
2018-06-16T10:17:38.627Z,3.83
2018-06-16T10:20:09.848Z,5.20
2018-06-16T10:22:39.461Z,4.20
2018-06-16T10:25:07.812Z,4.90
2018-06-16T10:27:39.877Z,3.50
2018-06-16T10:30:08.047Z,4.10
2018-06-16T10:32:39.611Z,3.17
2018-06-16T10:35:11.338Z,4.55
2018-06-16T10:37:39.574Z,4.50
2018-06-16T10:40:07.898Z,4.37
2018-06-16T10:42:36.108Z,2.72
2018-06-16T10:45:04.322Z,3.85
2018-06-16T10:47:32.547Z,2.75
2018-06-16T10:50:09.118Z,3.30
2018-06-16T10:52:37.318Z,2.80
2018-06-16T10:55:05.560Z,3.67
2018-06-16T10:57:33.757Z,2.55
2018-06-16T11:00:01.861Z,3.85
2018-06-16T11:02:39.891Z,2.58
2018-06-16T11:05:10.101Z,3.60
2018-06-16T11:07:38.330Z,3.65
2018-06-16T11:10:06.535Z,3.58
2018-06-16T11:12:34.722Z,3.67
2018-06-16T11:15:02.895Z,4.30
2018-06-16T11:17:31.055Z,3.98
2018-06-16T11:19:59.139Z,3.80
2018-06-16T11:22:27.402Z,2.83
2018-06-16T11:25:01.145Z,3.52
2018-06-16T11:27:29.382Z,2.75
2018-06-16T11:29:57.269Z,3.00
2018-06-16T11:32:31.301Z,2.95
2018-06-16T11:35:09.043Z,3.40
2018-06-16T11:37:37.248Z,2.35
2018-06-16T11:40:11.655Z,3.37
2018-06-16T11:42:40.624Z,2.58
2018-06-16T11:45:09.448Z,3.40
2018-06-16T11:47:37.570Z,3.12
2018-06-16T11:50:05.918Z,3.80
2018-06-16T11:52:40.129Z,2.50
2018-06-16T11:55:08.587Z,3.70
2018-06-16T11:57:36.883Z,3.00
2018-06-16T12:00:10.811Z,3.98
2018-06-16T12:02:39.766Z,4.15
2018-06-16T12:05:09.262Z,3.95
2018-06-16T12:07:42.227Z,4.05
2018-06-16T12:10:20.618Z,2.70
2018-06-16T12:12:48.758Z,3.70
2018-06-16T12:15:20.393Z,3.72
2018-06-16T12:17:48.607Z,3.55
2018-06-16T12:20:16.927Z,2.85
2018-06-16T12:22:45.449Z,4.30
2018-06-16T12:25:13.587Z,3.20
2018-06-16T12:27:41.926Z,4.75
2018-06-16T12:30:20.412Z,3.58
2018-06-16T12:32:48.541Z,4.10
2018-06-16T12:35:20.663Z,3.50
2018-06-16T12:37:48.615Z,4.72
2018-06-16T12:40:16.770Z,3.60
2018-06-16T12:42:44.988Z,4.60
2018-06-16T12:45:19.137Z,5.10
2018-06-16T12:47:47.395Z,5.40
2018-06-16T12:50:15.823Z,3.80
2018-06-16T12:55:42.170Z,4.72
2018-06-16T12:58:20.456Z,4.05
2018-06-16T13:00:48.570Z,5.10
2018-06-16T13:03:16.826Z,3.92
2018-06-16T13:05:45.041Z,5.53
2018-06-16T13:08:13.159Z,4.78
2018-06-16T13:10:48.521Z,3.58
2018-06-16T13:13:16.739Z,5.05
2018-06-16T13:15:44.901Z,3.77
2018-06-16T13:18:19.225Z,5.40
2018-06-16T13:20:47.514Z,3.90
2018-06-16T13:23:15.973Z,4.80
2018-06-16T13:25:44.124Z,4.10
2018-06-16T13:28:19.646Z,5.15
2018-06-16T13:30:47.801Z,4.08
2018-06-16T13:33:16.066Z,5.67
2018-06-16T13:35:44.230Z,5.50
2018-06-16T13:38:12.464Z,4.08
2018-06-16T13:40:41.312Z,5.28
2018-06-16T13:43:09.606Z,4.20
2018-06-16T13:45:37.734Z,5.62
2018-06-16T13:48:11.477Z,4.30
2018-06-16T13:50:39.692Z,6.30
2018-06-16T13:53:07.804Z,4.75
2018-06-16T13:55:35.933Z,5.90
2018-06-16T13:58:04.130Z,4.80
2018-06-16T14:00:38.968Z,5.62
2018-06-16T14:03:07.188Z,4.35
2018-06-16T14:05:35.616Z,5.60
2018-06-16T14:08:10.012Z,4.05
2018-06-16T14:10:38.775Z,4.90
2018-06-16T14:13:07.360Z,4.03
2018-06-16T14:15:35.623Z,5.37
2018-06-16T14:18:03.786Z,4.10
2018-06-16T14:20:39.018Z,5.05
2018-06-16T14:23:07.182Z,5.58
2018-06-16T14:25:41.393Z,4.55
2018-06-16T14:28:09.595Z,5.60
2018-06-16T14:30:37.761Z,4.78
2018-06-16T14:33:09.354Z,5.95
2018-06-16T14:35:37.795Z,4.60
2018-06-16T14:38:09.501Z,5.65
2018-06-16T14:40:37.642Z,4.55
2018-06-16T14:43:11.875Z,5.75
2018-06-16T14:45:50.242Z,6.00
2018-06-16T14:48:18.512Z,5.97
2018-06-16T14:50:46.810Z,4.42
2018-06-16T14:53:15.451Z,5.40
2018-06-16T14:55:43.873Z,4.90
2018-06-16T14:58:12.844Z,6.10
2018-06-16T15:00:50.725Z,4.70
2018-06-16T15:03:18.963Z,5.42
2018-06-16T15:05:50.911Z,6.20
2018-06-16T15:08:19.166Z,5.00
2018-06-16T15:10:47.361Z,6.40
2018-06-16T15:13:21.523Z,6.17
2018-06-16T15:15:59.973Z,6.40
2018-06-16T15:18:27.948Z,4.97
2018-06-16T15:20:55.945Z,6.75
2018-06-16T15:23:30.371Z,6.87
2018-06-16T15:25:59.562Z,4.42
2018-06-16T15:28:31.449Z,5.62
2018-06-16T15:30:59.683Z,4.92
2018-06-16T15:33:27.876Z,6.20
2018-06-16T15:35:56.210Z,4.42
2018-06-16T15:38:30.495Z,5.83
2018-06-16T15:41:00.171Z,4.33
2018-06-16T15:43:28.447Z,6.28
2018-06-16T15:46:00.263Z,4.60
2018-06-16T15:48:28.518Z,5.97
2018-06-16T15:50:56.805Z,4.72
2018-06-16T15:53:31.051Z,6.45
2018-06-16T15:55:59.312Z,5.08
2018-06-16T15:58:27.711Z,5.72
2018-06-16T16:00:55.972Z,4.87
2018-06-16T16:03:24.247Z,5.90
2018-06-16T16:05:52.484Z,4.30
2018-06-16T16:08:20.693Z,4.90
2018-06-16T16:10:48.944Z,6.92
2018-06-16T16:13:18.063Z,5.22
2018-06-16T16:15:46.322Z,6.17
2018-06-16T16:18:14.553Z,4.17
2018-06-16T16:20:42.696Z,6.10
2018-06-16T16:23:11.070Z,5.10
2018-06-16T16:25:40.249Z,6.50
2018-06-16T16:28:08.391Z,6.67
2018-06-16T16:30:40.241Z,4.90
2018-06-16T16:33:08.399Z,6.72
2018-06-16T16:35:36.717Z,4.90
2018-06-16T16:38:05.028Z,6.50
2018-06-16T16:40:33.304Z,6.30
2018-06-16T16:43:01.659Z,5.72
2018-06-16T16:45:39.671Z,7.03
2018-06-16T16:48:07.935Z,4.95
2018-06-16T16:50:36.275Z,6.12
2018-06-16T16:53:04.516Z,6.60
2018-06-16T16:55:32.681Z,6.72
2018-06-16T16:58:09.140Z,4.87
2018-06-16T17:00:37.324Z,6.87
2018-06-16T17:03:11.878Z,6.97
2018-06-16T17:05:49.575Z,7.60
2018-06-16T17:08:18.230Z,7.50
2018-06-16T17:10:46.499Z,7.60
2018-06-16T17:13:14.654Z,7.50
2018-06-16T17:15:49.290Z,5.55
2018-06-16T17:18:17.693Z,7.15
2018-06-16T17:20:49.474Z,5.03
2018-06-16T17:23:17.863Z,6.35
2018-06-16T17:25:46.345Z,5.83
2018-06-16T17:28:14.562Z,5.10
2018-06-16T17:30:42.703Z,6.35
2018-06-16T17:33:18.959Z,4.70
2018-06-16T17:35:47.169Z,6.42
2018-06-16T17:38:15.486Z,6.75
2018-06-16T17:40:49.455Z,6.28
2018-06-16T17:43:17.566Z,6.15
2018-06-16T17:45:51.499Z,6.60
2018-06-16T17:48:30.109Z,4.37
2018-06-16T17:50:58.385Z,6.00
2018-06-16T17:53:29.844Z,4.50
2018-06-16T17:55:58.158Z,6.30
2018-06-16T17:58:29.541Z,4.95
2018-06-16T18:00:57.698Z,6.05
2018-06-16T18:03:26.036Z,6.55
2018-06-16T18:05:59.865Z,4.75
2018-06-16T18:08:30.181Z,6.25
2018-06-16T18:10:58.558Z,4.40
2018-06-16T18:13:30.785Z,6.33
2018-06-16T18:15:59.166Z,4.85
2018-06-16T18:18:27.518Z,6.72
2018-06-16T18:20:55.806Z,4.33
2018-06-16T18:23:24.126Z,5.62
2018-06-16T18:25:52.416Z,4.20
2018-06-16T18:28:20.612Z,6.00
2018-06-16T18:30:48.802Z,4.10
2018-06-16T18:33:20.140Z,6.40
2018-06-16T18:35:48.517Z,5.05
2018-06-16T18:38:20.803Z,5.17
2018-06-16T18:40:49.031Z,4.67
2018-06-16T18:43:17.352Z,5.08
2018-06-16T18:45:45.617Z,5.22
2018-06-16T18:48:19.832Z,6.20
2018-06-16T18:50:48.151Z,4.87
2018-06-16T18:53:16.292Z,5.90
2018-06-16T18:55:50.304Z,6.47
2018-06-16T18:58:18.714Z,6.65
2018-06-16T19:00:46.845Z,5.50
2018-06-16T19:03:14.899Z,6.58
2018-06-16T19:05:49.054Z,7.33
2018-06-16T19:08:21.178Z,4.97
2018-06-16T19:10:50.867Z,5.85
2018-06-16T19:13:19.001Z,5.05
2018-06-16T19:15:53.193Z,5.80
2018-06-16T19:18:31.319Z,6.00
2018-06-16T19:20:59.398Z,6.35
2018-06-16T19:23:29.424Z,5.62
2018-06-16T19:26:01.142Z,6.90
2018-06-16T19:28:30.051Z,5.53
2018-06-16T19:30:58.161Z,6.27
2018-06-16T19:33:26.219Z,7.17
2018-06-16T19:36:00.745Z,8.10
2018-06-16T19:38:30.062Z,6.87
2018-06-16T19:41:00.070Z,6.43
2018-06-16T19:43:30.497Z,6.67
2018-06-16T19:45:59.683Z,7.20
2018-06-16T19:48:29.566Z,6.53
2018-06-16T19:50:57.652Z,6.90
2018-06-16T19:53:25.719Z,7.23
2018-06-16T19:55:53.900Z,7.37
2018-06-16T19:58:22.134Z,8.00
2018-06-16T20:00:59.622Z,7.67
2018-06-16T20:03:27.548Z,7.97
2018-06-16T20:05:55.659Z,8.87
2018-06-16T20:08:29.491Z,8.73
2018-06-16T20:10:58.214Z,9.77
2018-06-16T20:13:30.149Z,10.47
2018-06-16T20:15:58.297Z,9.33
2018-06-16T20:18:26.384Z,10.30
2018-06-16T20:20:54.426Z,10.43
2018-06-16T20:23:29.243Z,9.87
2018-06-16T20:25:57.295Z,10.30
2018-06-16T20:28:31.645Z,9.37
2018-06-16T20:31:09.401Z,10.63
2018-06-16T20:33:37.531Z,10.13
2018-06-16T20:36:05.567Z,10.07
2018-06-16T20:38:39.474Z,11.03
2018-06-16T20:41:10.706Z,11.67
2018-06-16T20:43:39.715Z,10.60
2018-06-16T20:46:08.587Z,12.00
2018-06-16T20:48:36.733Z,12.03
2018-06-16T20:51:10.864Z,11.90
2018-06-16T20:53:40.394Z,11.43
2018-06-16T20:56:08.644Z,12.03
2018-06-16T20:58:36.710Z,13.57
2018-06-16T21:01:10.994Z,15.17
2018-06-16T21:03:39.056Z,13.93
2018-06-16T21:06:07.142Z,13.67
2018-06-16T21:08:35.237Z,13.97
2018-06-16T21:11:03.295Z,14.57
2018-06-16T21:13:39.235Z,13.70
2018-06-16T21:16:07.387Z,13.33
2018-06-16T21:18:41.229Z,14.30
2018-06-16T21:21:09.395Z,14.10
2018-06-16T21:23:40.893Z,12.90
2018-06-16T21:26:08.895Z,12.20
2018-06-16T21:28:36.979Z,12.67
2018-06-16T21:31:05.019Z,15.83
2018-06-16T21:33:33.110Z,14.20
2018-06-16T21:36:01.187Z,15.43
2018-06-16T21:38:29.296Z,18.70
2018-06-16T21:40:57.498Z,15.03
2018-06-16T21:43:31.978Z,15.23
2018-06-16T21:46:00.638Z,13.77
2018-06-16T21:48:29.926Z,16.27
2018-06-16T21:50:58.205Z,16.60
2018-06-16T21:53:29.590Z,14.60
2018-06-16T21:55:57.747Z,14.33
2018-06-16T21:58:25.845Z,16.60
2018-06-16T22:00:59.447Z,15.27
2018-06-16T22:03:30.894Z,18.13
2018-06-16T22:05:58.961Z,18.27
2018-06-16T22:08:33.129Z,16.70
2018-06-16T22:11:10.664Z,18.50
2018-06-16T22:13:38.743Z,18.20
2018-06-16T22:16:11.360Z,18.20
2018-06-16T22:18:40.339Z,20.30
2018-06-16T22:21:10.540Z,18.90
2018-06-16T22:23:38.613Z,16.43
2018-06-16T22:26:12.681Z,15.53
2018-06-16T22:28:44.268Z,17.57
2018-06-16T22:31:19.533Z,16.57
2018-06-16T22:33:47.702Z,17.20
2018-06-16T22:36:21.234Z,14.23
2018-06-16T22:38:49.282Z,15.63
2018-06-16T22:41:20.695Z,16.47
2018-06-16T22:43:48.734Z,20.10
2018-06-16T22:46:20.512Z,20.73
2018-06-16T22:48:50.294Z,19.83
2018-06-16T22:51:20.058Z,19.70
2018-06-16T22:53:49.626Z,19.27
2018-06-16T22:56:17.674Z,20.37
2018-06-16T22:58:45.724Z,18.30
2018-06-16T23:01:19.525Z,19.40
2018-06-16T23:03:47.627Z,21.10
2018-06-16T23:06:16.054Z,23.43
2018-06-16T23:08:44.356Z,20.93
2018-06-16T23:11:12.448Z,20.57
2018-06-16T23:13:40.522Z,19.40
2018-06-16T23:16:09.870Z,19.97
2018-06-16T23:18:37.890Z,21.63
2018-06-16T23:21:05.937Z,24.30
2018-06-16T23:23:40.054Z,22.70
2018-06-16T23:26:08.134Z,20.93
2018-06-16T23:28:36.168Z,19.83
2018-06-16T23:31:04.228Z,21.77
2018-06-16T23:33:32.281Z,25.70
2018-06-16T23:36:10.373Z,31.53
2018-06-16T23:38:38.457Z,29.43
2018-06-16T23:41:06.489Z,28.03
2018-06-16T23:43:40.121Z,25.47
2018-06-16T23:46:08.180Z,24.27
2018-06-16T23:48:36.192Z,27.67
2018-06-16T23:51:04.228Z,28.07
2018-06-16T23:53:32.256Z,29.03
2018-06-16T23:56:10.342Z,39.10
2018-06-16T23:58:39.621Z,35.00
